Time;durP1;ratioP1;P1;durP2;ratioP2;P2;SDS_P1;SDS_P2;PMS_P1;PMS_P2;Temp;Humidity;BMP_temperature;BMP_pressure;BME280_temperature;BME280_humidity;BME280_pressure;Samples;Min_cycle;Max_cycle;Signal;HPM_P1;HPM_P2
2022/10/06 00:00:03;;;;;;;6.05;0.60;;;14.60;81.10;;;;;;5090275;28;20053;-76
2022/10/06 00:02:34;;;;;;;5.67;0.70;;;14.60;81.20;;;;;;5091303;28;20106;-77
2022/10/06 00:05:01;;;;;;;3.95;0.50;;;14.60;81.20;;;;;;5092679;28;21095;-77
2022/10/06 00:07:28;;;;;;;5.70;0.57;;;14.60;81.20;;;;;;5091715;28;21083;-77
2022/10/06 00:09:55;;;;;;;6.70;0.70;;;14.60;81.20;;;;;;5091183;28;20048;-77
2022/10/06 00:12:22;;;;;;;7.55;0.77;;;14.60;81.20;;;;;;5091351;28;20053;-77
2022/10/06 00:14:49;;;;;;;4.77;0.60;;;14.50;81.10;;;;;;5091522;28;20044;-77
2022/10/06 00:17:18;;;;;;;5.45;0.60;;;14.50;81.10;;;;;;5092210;28;21308;-77
2022/10/06 00:19:45;;;;;;;4.68;0.60;;;14.50;81.20;;;;;;5091051;28;20051;-77
2022/10/06 00:22:12;;;;;;;5.22;0.70;;;14.50;81.10;;;;;;5073758;28;20054;-76
2022/10/06 00:24:39;;;;;;;5.05;0.65;;;14.40;81.10;;;;;;5092767;28;20558;-77
2022/10/06 00:27:06;;;;;;;5.10;0.80;;;14.40;81.10;;;;;;5091119;28;20053;-77
2022/10/06 00:29:33;;;;;;;3.58;0.50;;;14.40;81.10;;;;;;5090682;28;20287;-77
2022/10/06 00:32:00;;;;;;;5.50;0.70;;;14.40;81.10;;;;;;5090921;28;20059;-77
2022/10/06 00:34:29;;;;;;;4.68;0.60;;;14.40;81.00;;;;;;5072717;28;20139;-77
2022/10/06 00:36:56;;;;;;;5.60;0.60;;;14.40;81.00;;;;;;5073486;28;20047;-77
2022/10/06 00:39:25;;;;;;;6.77;0.70;;;14.30;81.00;;;;;;5090249;28;20135;-77
2022/10/06 00:41:53;;;;;;;5.53;0.95;;;14.30;81.00;;;;;;5088616;28;20280;-77
2022/10/06 00:44:20;;;;;;;4.78;0.80;;;14.30;80.90;;;;;;5089558;28;20078;-77
2022/10/06 00:46:49;;;;;;;4.25;0.50;;;14.30;80.90;;;;;;5071737;28;20044;-77
2022/10/06 00:49:20;;;;;;;4.05;0.70;;;14.30;80.80;;;;;;5071662;28;20135;-77
2022/10/06 00:51:52;;;;;;;5.90;0.97;;;14.20;80.70;;;;;;5089510;28;20955;-77
2022/10/06 00:54:19;;;;;;;9.27;0.75;;;14.20;80.40;;;;;;5072364;28;20251;-76
2022/10/06 00:56:47;;;;;;;6.13;0.63;;;14.20;80.20;;;;;;5090530;28;20122;-77
2022/10/06 00:59:17;;;;;;;4.40;0.50;;;14.20;80.00;;;;;;5073322;28;20052;-77
2022/10/06 01:01:49;;;;;;;7.85;0.90;;;14.20;79.70;;;;;;5073686;28;20044;-77
2022/10/06 01:07:59;;;;;;;7.00;1.00;;;14.10;79.30;;;;;;5077463;28;20350;-76
2022/10/06 01:10:27;;;;;;;5.85;0.70;;;14.10;78.40;;;;;;5072692;28;21000;-77
2022/10/06 01:12:54;;;;;;;8.25;0.70;;;14.00;78.00;;;;;;5090165;28;20048;-77
2022/10/06 01:15:22;;;;;;;8.02;1.10;;;14.00;77.80;;;;;;5073703;28;20045;-77
2022/10/06 01:17:54;;;;;;;7.37;0.93;;;14.00;77.60;;;;;;5073133;28;20040;-77
2022/10/06 01:20:22;;;;;;;5.30;0.60;;;14.00;77.10;;;;;;5073451;28;20282;-77
2022/10/06 01:22:54;;;;;;;5.18;0.50;;;13.90;77.20;;;;;;5089559;28;20052;-76
2022/10/06 01:25:22;;;;;;;5.70;0.55;;;13.90;77.00;;;;;;5089194;28;20049;-77
2022/10/06 01:27:54;;;;;;;6.32;0.68;;;13.90;76.70;;;;;;5073286;28;20052;-77
2022/10/06 01:30:28;;;;;;;6.50;0.83;;;13.90;76.60;;;;;;5072582;28;20064;-76
2022/10/06 01:32:56;;;;;;;6.60;0.60;;;13.80;76.60;;;;;;5073032;28;20283;-77
2022/10/06 01:35:24;;;;;;;6.72;1.20;;;13.70;76.00;;;;;;5072530;28;20098;-76
2022/10/06 01:37:53;;;;;;;8.10;1.00;;;13.70;75.70;;;;;;5091314;28;20048;-77
2022/10/06 01:40:20;;;;;;;5.10;0.98;;;13.70;75.60;;;;;;5072683;28;20049;-77
2022/10/06 01:42:48;;;;;;;7.23;0.93;;;13.70;75.50;;;;;;5061746;28;20048;-77
2022/10/06 01:45:15;;;;;;;7.22;0.90;;;13.60;75.40;;;;;;5072920;28;20260;-77
2022/10/06 01:47:42;;;;;;;9.75;1.00;;;13.60;75.20;;;;;;5072822;28;20074;-77
2022/10/06 01:50:10;;;;;;;6.07;0.75;;;13.60;75.20;;;;;;5072802;28;20041;-77
2022/10/06 01:52:37;;;;;;;6.57;0.68;;;13.60;75.10;;;;;;5072548;28;21087;-76
2022/10/06 01:55:07;;;;;;;9.00;0.90;;;13.50;75.40;;;;;;5089959;28;20052;-76
2022/10/06 01:57:38;;;;;;;7.78;0.77;;;13.50;75.20;;;;;;5072872;28;20309;-76
2022/10/06 02:00:07;;;;;;;6.03;0.90;;;13.50;75.30;;;;;;5071729;28;20132;-77
2022/10/06 02:02:40;;;;;;;7.07;0.55;;;13.50;75.10;;;;;;5089560;28;20048;-77
2022/10/06 02:05:07;;;;;;;8.70;1.00;;;13.50;75.10;;;;;;5072249;28;20059;-77
2022/10/06 02:07:37;;;;;;;4.97;0.63;;;13.50;75.00;;;;;;5072675;28;20542;-77
2022/10/06 02:10:07;;;;;;;3.97;0.75;;;13.50;75.00;;;;;;5089115;28;20305;-77
2022/10/06 02:12:35;;;;;;;8.05;0.80;;;13.50;75.10;;;;;;5072628;28;20047;-77
2022/10/06 02:15:02;;;;;;;6.78;0.70;;;13.40;75.00;;;;;;5073908;28;20725;-77
2022/10/06 02:17:29;;;;;;;8.25;1.13;;;13.40;75.00;;;;;;5092797;28;20040;-77
2022/10/06 02:19:58;;;;;;;8.97;1.30;;;13.30;75.10;;;;;;5057310;28;20049;-77
2022/10/06 02:22:27;;;;;;;6.40;0.80;;;13.30;75.00;;;;;;5052243;28;20364;-77
2022/10/06 02:24:54;;;;;;;5.63;0.70;;;13.30;75.00;;;;;;5052529;28;20107;-77
2022/10/06 02:27:22;;;;;;;9.45;1.00;;;13.30;75.10;;;;;;5052535;28;20052;-77
2022/10/06 02:29:50;;;;;;;5.03;0.70;;;13.30;75.00;;;;;;5052522;28;20053;-77
2022/10/06 02:32:17;;;;;;;5.43;0.60;;;13.30;74.70;;;;;;5074351;28;21010;-76
2022/10/06 02:34:45;;;;;;;7.55;0.93;;;13.30;74.70;;;;;;5072263;28;20313;-77
2022/10/06 02:37:14;;;;;;;8.00;0.98;;;13.20;74.50;;;;;;5072414;28;20052;-76
2022/10/06 02:39:41;;;;;;;8.80;1.13;;;13.10;74.50;;;;;;5071573;28;20044;-76
2022/10/06 02:42:10;;;;;;;5.40;0.70;;;13.20;74.20;;;;;;5072440;28;20055;-77
2022/10/06 02:44:40;;;;;;;7.77;0.73;;;13.10;74.30;;;;;;5071879;28;20532;-77
2022/10/06 02:47:11;;;;;;;5.63;0.73;;;13.10;74.00;;;;;;5072094;28;20248;-77
2022/10/06 02:49:38;;;;;;;6.82;1.10;;;13.10;74.00;;;;;;5087874;28;20053;-76
2022/10/06 02:52:05;;;;;;;9.30;0.90;;;13.10;74.10;;;;;;5072183;28;20126;-76
2022/10/06 02:54:34;;;;;;;12.60;1.27;;;13.10;74.10;;;;;;5072061;28;20578;-77
2022/10/06 02:57:01;;;;;;;7.80;0.97;;;13.10;73.90;;;;;;5071979;28;20048;-77
2022/10/06 02:59:28;;;;;;;6.72;0.88;;;13.10;73.90;;;;;;5071746;28;20283;-76
2022/10/06 03:01:57;;;;;;;5.95;0.73;;;13.10;73.80;;;;;;5089264;28;20052;-77
2022/10/06 03:04:24;;;;;;;7.38;0.90;;;13.00;73.60;;;;;;5088251;28;20494;-77
2022/10/06 03:06:51;;;;;;;6.55;0.70;;;13.00;73.50;;;;;;5088040;28;20044;-76
2022/10/06 03:09:21;;;;;;;7.50;0.70;;;13.00;73.60;;;;;;5071472;28;20048;-77
2022/10/06 03:11:49;;;;;;;6.50;0.90;;;13.00;73.70;;;;;;5071880;28;20271;-76
2022/10/06 03:14:22;;;;;;;6.47;0.80;;;13.00;73.40;;;;;;5071787;28;20052;-77
2022/10/06 03:16:50;;;;;;;8.15;1.10;;;13.00;73.50;;;;;;5071789;28;20508;-76
2022/10/06 03:19:23;;;;;;;8.30;1.20;;;13.00;73.60;;;;;;5088033;28;20048;-76
2022/10/06 03:21:51;;;;;;;6.43;0.60;;;12.90;73.70;;;;;;5071809;28;20476;-76
2022/10/06 03:24:18;;;;;;;7.07;0.90;;;12.90;73.80;;;;;;5070767;28;20254;-77
2022/10/06 03:26:49;;;;;;;6.57;1.00;;;12.90;73.90;;;;;;5072370;28;20056;-77
2022/10/06 03:29:18;;;;;;;9.13;1.40;;;12.90;74.00;;;;;;5091454;28;20191;-77
2022/10/06 03:31:51;;;;;;;7.70;0.88;;;12.90;74.00;;;;;;5074999;28;20048;-76
2022/10/06 03:34:18;;;;;;;9.83;1.17;;;12.90;74.10;;;;;;5074914;28;20102;-77
2022/10/06 03:36:47;;;;;;;8.85;0.77;;;12.80;74.10;;;;;;5075222;28;20338;-76
2022/10/06 03:39:18;;;;;;;5.70;1.00;;;12.80;74.00;;;;;;5074199;28;20047;-77
2022/10/06 03:41:45;;;;;;;6.60;0.70;;;12.80;73.90;;;;;;5092073;28;20080;-76
2022/10/06 03:44:12;;;;;;;6.28;0.75;;;12.80;73.90;;;;;;5092056;28;20052;-76
2022/10/06 03:46:42;;;;;;;5.70;0.90;;;12.80;73.90;;;;;;5091500;28;20049;-76
2022/10/06 03:49:09;;;;;;;7.05;0.95;;;12.80;73.90;;;;;;5091499;28;20347;-76
2022/10/06 03:51:38;;;;;;;4.53;0.70;;;12.70;73.90;;;;;;5091136;28;20044;-77
2022/10/06 03:54:09;;;;;;;7.88;1.08;;;12.70;73.80;;;;;;5074854;28;20059;-76
2022/10/06 03:56:38;;;;;;;7.28;1.10;;;12.70;73.80;;;;;;5073839;28;20055;-76
2022/10/06 03:59:08;;;;;;;5.13;0.80;;;12.70;73.70;;;;;;5091236;28;20052;-76
2022/10/06 04:01:38;;;;;;;9.38;1.27;;;12.60;73.70;;;;;;5074373;28;20275;-76
2022/10/06 04:04:07;;;;;;;8.15;0.80;;;12.60;73.60;;;;;;5074441;28;20052;-77
2022/10/06 04:06:36;;;;;;;8.57;1.17;;;12.60;73.60;;;;;;5074419;28;20044;-77
2022/10/06 04:09:07;;;;;;;7.50;0.90;;;12.60;73.60;;;;;;5091020;28;20137;-76
2022/10/06 04:11:38;;;;;;;8.50;0.90;;;12.60;73.60;;;;;;5074014;28;20154;-77
2022/10/06 04:14:07;;;;;;;9.30;1.00;;;12.50;73.60;;;;;;5082600;28;20302;-76
2022/10/06 04:16:51;;;;;;;9.27;1.02;;;12.50;73.70;;;;;;5089723;28;20051;-77
2022/10/06 04:19:33;;;;;;;9.13;0.90;;;12.50;73.70;;;;;;5074020;28;20311;-76
2022/10/06 04:22:01;;;;;;;6.55;0.98;;;12.50;73.60;;;;;;5074492;28;20068;-77
2022/10/06 04:24:29;;;;;;;6.73;1.00;;;12.50;73.60;;;;;;5074245;28;20059;-76
2022/10/06 04:27:26;;;;;;;8.98;1.10;;;12.50;73.50;;;;;;5074110;28;20263;-76
2022/10/06 04:29:52;;;;;;;6.65;0.90;;;12.50;73.50;;;;;;5073696;28;20821;-76
2022/10/06 04:32:19;;;;;;;4.45;0.70;;;12.50;73.50;;;;;;5073054;28;20466;-76
2022/10/06 04:34:47;;;;;;;6.65;1.05;;;12.50;73.60;;;;;;5091162;28;20063;-76
2022/10/06 04:37:14;;;;;;;10.03;1.10;;;12.50;73.60;;;;;;5091131;28;20114;-76
2022/10/06 04:39:43;;;;;;;9.07;0.77;;;12.50;73.70;;;;;;5073717;28;20765;-77
2022/10/06 04:42:11;;;;;;;5.80;1.00;;;12.50;73.80;;;;;;5073193;28;20514;-76
2022/10/06 04:44:39;;;;;;;9.65;0.93;;;12.50;73.80;;;;;;5073688;28;20048;-76
2022/10/06 04:47:07;;;;;;;6.55;0.90;;;12.50;73.90;;;;;;5072487;28;20611;-77
2022/10/06 04:49:34;;;;;;;11.13;0.93;;;12.50;73.80;;;;;;5073314;28;20045;-77
2022/10/06 04:52:03;;;;;;;6.53;0.80;;;12.40;73.90;;;;;;5075252;28;20276;-76
2022/10/06 04:54:32;;;;;;;8.45;1.25;;;12.40;74.00;;;;;;5053347;28;20049;-77
2022/10/06 04:57:00;;;;;;;10.25;1.00;;;12.40;74.10;;;;;;5070233;28;20475;-77
2022/10/06 05:02:18;;;;;;;8.57;1.00;;;12.40;74.10;;;;;;5069626;28;20175;-77
2022/10/06 05:04:46;;;;;;;8.10;1.02;;;12.40;74.20;;;;;;5083394;28;20248;-77
2022/10/06 05:07:15;;;;;;;8.02;1.05;;;12.30;74.20;;;;;;5069524;28;20572;-77
2022/10/06 05:09:43;;;;;;;6.15;0.90;;;12.30;74.40;;;;;;5089611;28;20048;-76
2022/10/06 05:12:11;;;;;;;6.47;0.82;;;12.30;74.40;;;;;;5072901;28;20486;-77
2022/10/06 05:14:40;;;;;;;7.73;0.80;;;12.30;74.50;;;;;;5090200;28;20056;-76
2022/10/06 05:17:07;;;;;;;7.75;0.98;;;12.30;74.70;;;;;;5072797;28;20259;-76
2022/10/06 05:19:36;;;;;;;10.02;1.08;;;12.30;74.70;;;;;;5072083;28;20084;-76
2022/10/06 05:22:04;;;;;;;6.90;0.80;;;12.20;74.80;;;;;;5071619;28;20102;-76
2022/10/06 05:24:32;;;;;;;8.60;1.08;;;12.20;74.90;;;;;;5072637;28;20055;-77
2022/10/06 05:27:01;;;;;;;9.07;0.83;;;12.20;75.10;;;;;;5083282;28;20081;-76
2022/10/06 05:29:29;;;;;;;7.43;0.75;;;12.20;75.20;;;;;;5052315;28;20304;-76
2022/10/06 05:31:58;;;;;;;8.95;1.00;;;12.10;75.30;;;;;;5060971;28;20052;-76
2022/10/06 05:34:27;;;;;;;8.00;1.23;;;12.10;75.50;;;;;;5080544;28;20052;-76
2022/10/06 05:36:54;;;;;;;11.65;1.02;;;12.10;75.70;;;;;;5079242;28;20057;-76
2022/10/06 05:39:21;;;;;;;10.07;1.10;;;12.10;75.70;;;;;;5070515;28;20048;-76
2022/10/06 05:41:52;;;;;;;6.40;0.95;;;12.10;75.90;;;;;;5084031;28;20276;-76
2022/10/06 05:44:19;;;;;;;8.70;0.85;;;12.00;75.90;;;;;;5051616;28;20188;-76
2022/10/06 05:46:46;;;;;;;5.90;0.90;;;12.00;76.00;;;;;;5051475;28;20107;-76
2022/10/06 05:49:15;;;;;;;7.30;0.82;;;12.00;76.00;;;;;;5051596;28;20048;-76
2022/10/06 05:51:48;;;;;;;8.57;1.00;;;12.00;76.10;;;;;;5051618;28;20045;-76
2022/10/06 05:54:20;;;;;;;7.35;0.90;;;11.90;76.20;;;;;;5052154;28;20248;-77
2022/10/06 05:56:47;;;;;;;9.10;1.40;;;11.90;76.20;;;;;;5054857;28;20633;-76
2022/10/06 05:59:14;;;;;;;10.23;1.00;;;11.90;76.20;;;;;;5072322;28;20920;-77
2022/10/06 06:01:42;;;;;;;7.82;1.00;;;11.90;76.30;;;;;;5087352;28;20055;-76
2022/10/06 06:04:25;;;;;;;11.63;1.23;;;11.90;76.40;;;;;;5052436;28;20053;-76
2022/10/06 06:06:55;;;;;;;5.32;1.17;;;11.90;76.50;;;;;;5056400;28;20262;-77
2022/10/06 06:09:25;;;;;;;8.00;1.10;;;11.80;76.60;;;;;;5071817;28;20985;-77
2022/10/06 06:12:00;;;;;;;7.45;0.80;;;11.70;76.60;;;;;;5069218;28;20099;-77
2022/10/06 06:20:14;;;;;;;9.38;0.93;;;11.70;77.00;;;;;;5048977;28;20361;-77
2022/10/06 06:22:41;;;;;;;9.35;1.40;;;11.70;77.10;;;;;;5051027;28;20057;-76
2022/10/06 06:25:09;;;;;;;8.52;1.23;;;11.70;77.30;;;;;;5034935;28;20140;-77
2022/10/06 06:27:38;;;;;;;9.63;1.30;;;11.70;77.30;;;;;;5034309;28;20741;-76
2022/10/06 06:30:06;;;;;;;7.40;0.77;;;11.70;77.40;;;;;;5027883;28;20056;-77
2022/10/06 06:32:34;;;;;;;7.15;0.98;;;11.70;77.50;;;;;;5048960;28;20302;-76
2022/10/06 06:35:02;;;;;;;8.38;0.98;;;11.70;77.60;;;;;;5030626;28;20998;-76
2022/10/06 06:37:32;;;;;;;9.02;1.10;;;11.60;77.80;;;;;;5033553;28;21044;-76
2022/10/06 06:40:00;;;;;;;9.65;1.40;;;11.60;77.80;;;;;;5033329;28;20049;-76
2022/10/06 06:42:27;;;;;;;8.47;1.10;;;11.60;78.00;;;;;;5032345;28;20561;-75
2022/10/06 06:44:54;;;;;;;10.55;1.35;;;11.60;78.20;;;;;;5046860;28;21130;-75
2022/10/06 06:47:35;;;;;;;9.38;1.00;;;11.60;78.30;;;;;;5048766;28;20060;-75
2022/10/06 06:50:09;;;;;;;8.52;1.08;;;11.60;78.40;;;;;;5031019;28;21848;-77
2022/10/06 06:52:40;;;;;;;9.15;1.13;;;11.60;78.50;;;;;;5049790;28;20048;-76
2022/10/06 06:55:10;;;;;;;7.67;1.40;;;11.60;78.60;;;;;;5033119;28;20045;-77
2022/10/06 06:57:37;;;;;;;5.55;0.80;;;11.70;78.70;;;;;;5033455;28;20280;-77
2022/10/06 07:00:07;;;;;;;10.82;1.40;;;11.70;78.80;;;;;;5031647;28;20056;-77
2022/10/06 07:02:35;;;;;;;11.23;1.27;;;11.70;78.90;;;;;;5036732;28;21091;-77
2022/10/06 07:05:02;;;;;;;12.95;1.20;;;11.70;78.90;;;;;;5038325;28;20048;-77
2022/10/06 07:07:30;;;;;;;9.23;0.90;;;11.70;79.00;;;;;;5053903;28;20053;-76
2022/10/06 07:09:59;;;;;;;9.95;1.40;;;11.70;79.00;;;;;;5038116;28;20256;-77
2022/10/06 07:12:26;;;;;;;9.45;1.02;;;11.70;79.10;;;;;;5051647;28;20045;-76
2022/10/06 07:26:08;;;;;;;7.32;1.00;;;11.90;79.30;;;;;;5034925;28;20049;-75
2022/10/06 07:28:35;;;;;;;10.60;1.67;;;11.90;79.10;;;;;;5034945;28;20049;-76
2022/10/06 07:31:03;;;;;;;10.38;1.40;;;11.90;79.30;;;;;;5034229;28;20041;-77
2022/10/06 07:33:32;;;;;;;10.10;1.23;;;11.90;79.20;;;;;;5037198;28;20107;-77
2022/10/06 07:36:02;;;;;;;9.20;1.38;;;12.00;79.20;;;;;;5051719;28;20629;-76
2022/10/06 07:38:30;;;;;;;11.18;1.50;;;12.00;79.30;;;;;;5037264;28;20045;-78
2022/10/06 07:40:59;;;;;;;8.38;1.05;;;12.10;79.10;;;;;;5036597;28;20589;-78
2022/10/06 07:43:31;;;;;;;8.57;1.25;;;12.10;79.20;;;;;;5037853;28;20491;-77
2022/10/06 07:45:59;;;;;;;8.33;1.13;;;12.20;79.20;;;;;;5054239;28;20053;-77
2022/10/06 07:48:34;;;;;;;9.60;1.17;;;12.20;79.20;;;;;;5037580;28;20360;-78
2022/10/06 07:51:05;;;;;;;7.97;1.10;;;12.30;79.20;;;;;;5053648;28;20802;-77
2022/10/06 07:53:36;;;;;;;8.45;1.10;;;12.30;79.30;;;;;;5037975;28;20052;-77
2022/10/06 07:56:19;;;;;;;6.25;0.85;;;12.30;79.10;;;;;;5036721;28;20045;-77
2022/10/06 07:58:51;;;;;;;10.43;1.27;;;12.40;79.20;;;;;;5035893;28;20064;-78
2022/10/06 08:01:20;;;;;;;7.95;1.20;;;12.50;79.00;;;;;;5072643;28;20261;-79
2022/10/06 08:03:49;;;;;;;8.90;1.40;;;12.50;78.90;;;;;;5069425;28;20092;-79
2022/10/06 08:06:18;;;;;;;11.55;1.33;;;12.50;78.90;;;;;;5052508;28;20052;-79
2022/10/06 08:08:46;;;;;;;7.22;0.95;;;12.50;78.80;;;;;;5052643;28;20075;-79
2022/10/06 08:11:15;;;;;;;9.17;1.13;;;12.60;78.60;;;;;;5070629;28;20053;-76
2022/10/06 08:13:46;;;;;;;10.55;0.93;;;12.70;78.60;;;;;;5036322;28;20285;-75
2022/10/06 08:16:18;;;;;;;5.85;1.00;;;12.70;78.60;;;;;;5045199;28;20054;-78
2022/10/06 08:18:52;;;;;;;9.23;1.30;;;12.80;78.50;;;;;;5061684;28;20083;-78
2022/10/06 08:21:21;;;;;;;9.70;1.13;;;12.90;78.40;;;;;;5051946;28;20077;-79
2022/10/06 08:23:50;;;;;;;8.43;1.43;;;12.90;78.00;;;;;;5069816;28;20057;-78
2022/10/06 08:26:19;;;;;;;10.57;1.02;;;13.00;78.00;;;;;;5052137;28;20258;-78
2022/10/06 08:28:48;;;;;;;9.65;1.15;;;13.00;77.70;;;;;;5049391;28;20053;-77
2022/10/06 08:31:18;;;;;;;8.30;1.30;;;13.10;77.50;;;;;;5052688;28;20049;-81
2022/10/06 08:33:45;;;;;;;8.35;1.40;;;13.10;77.30;;;;;;5052803;28;20426;-77
2022/10/06 08:36:15;;;;;;;12.90;1.10;;;13.10;77.40;;;;;;5042415;28;20127;-82
2022/10/06 08:38:49;;;;;;;9.02;1.02;;;13.10;77.60;;;;;;5055115;28;20280;-79
2022/10/06 08:41:22;;;;;;;7.28;1.15;;;13.30;77.40;;;;;;5050501;28;20049;-79
2022/10/06 08:43:56;;;;;;;11.60;1.65;;;13.30;77.40;;;;;;5033787;28;21000;-81
2022/10/06 08:46:27;;;;;;;10.30;1.48;;;13.30;76.90;;;;;;5052010;28;20053;-77
2022/10/06 08:48:57;;;;;;;6.47;0.90;;;13.30;76.80;;;;;;5070174;28;20056;-78
2022/10/06 08:51:49;;;;;;;7.95;1.27;;;13.30;76.70;;;;;;5034035;28;20284;-80
2022/10/06 08:54:28;;;;;;;8.18;0.98;;;13.40;77.10;;;;;;5038653;28;20063;-78
2022/10/06 08:57:02;;;;;;;8.77;0.93;;;13.50;76.80;;;;;;5033835;28;20046;-80
2022/10/06 08:59:33;;;;;;;11.38;1.20;;;13.50;76.90;;;;;;5051353;28;20060;-77
2022/10/06 09:02:06;;;;;;;11.47;1.60;;;13.50;76.80;;;;;;5053794;28;20073;-79
2022/10/06 09:04:34;;;;;;;7.28;0.80;;;13.50;76.90;;;;;;5050220;28;20264;-79
2022/10/06 09:07:04;;;;;;;8.35;1.23;;;13.60;76.90;;;;;;5033668;28;20054;-80
2022/10/06 09:09:48;;;;;;;11.05;1.50;;;13.70;76.60;;;;;;5051756;28;20152;-77
2022/10/06 09:12:26;;;;;;;10.68;1.30;;;13.70;76.00;;;;;;5052902;28;20134;-77
2022/10/06 09:14:56;;;;;;;7.20;1.27;;;13.90;76.00;;;;;;5049540;28;20104;-79
2022/10/06 09:17:30;;;;;;;12.32;1.35;;;13.90;76.10;;;;;;5033463;28;20256;-78
2022/10/06 09:20:02;;;;;;;6.85;0.85;;;13.90;76.20;;;;;;5034181;28;20403;-79
2022/10/06 09:22:31;;;;;;;6.78;0.77;;;13.90;75.70;;;;;;5050375;28;20132;-80
2022/10/06 09:25:08;;;;;;;9.05;1.30;;;14.00;75.50;;;;;;5048450;28;20057;-78
2022/10/06 09:27:39;;;;;;;9.33;1.27;;;14.00;75.40;;;;;;5033156;28;20061;-79
2022/10/06 09:30:11;;;;;;;10.98;1.20;;;14.10;74.80;;;;;;5033430;28;20295;-77
2022/10/06 09:32:46;;;;;;;11.25;1.65;;;14.20;74.40;;;;;;5050667;28;20617;-82
2022/10/06 09:35:18;;;;;;;8.30;1.25;;;14.20;74.20;;;;;;5051648;28;20413;-84
2022/10/06 09:37:53;;;;;;;8.18;1.00;;;14.20;74.40;;;;;;5052659;28;20053;-82
2022/10/06 09:40:34;;;;;;;10.67;1.50;;;14.30;74.70;;;;;;5049821;28;20045;-81
2022/10/06 09:43:02;;;;;;;14.23;1.70;;;14.30;74.70;;;;;;5033384;28;20271;-81
2022/10/06 09:45:30;;;;;;;11.27;1.60;;;14.40;74.40;;;;;;5051860;28;20057;-77
2022/10/06 09:48:12;;;;;;;7.13;1.45;;;14.40;74.40;;;;;;5070556;28;20083;-76
2022/10/06 09:50:40;;;;;;;8.93;1.15;;;14.50;73.40;;;;;;5047365;28;20050;-78
2022/10/06 09:53:15;;;;;;;7.90;1.20;;;14.50;72.90;;;;;;5059661;28;20047;-77
2022/10/06 09:55:53;;;;;;;7.35;0.90;;;14.50;72.90;;;;;;5045465;28;21162;-77
2022/10/06 09:58:31;;;;;;;8.48;1.40;;;14.60;73.10;;;;;;5071794;28;20057;-77
2022/10/06 10:01:01;;;;;;;10.07;1.05;;;14.60;73.60;;;;;;5063095;28;20080;-77
2022/10/06 10:03:45;;;;;;;11.32;1.23;;;14.60;74.00;;;;;;5034190;28;20604;-77
2022/10/06 10:06:23;;;;;;;6.47;1.13;;;14.70;74.20;;;;;;5066385;28;20053;-77
2022/10/06 10:08:50;;;;;;;11.05;0.98;;;14.80;73.20;;;;;;5069127;28;20365;-77
2022/10/06 10:14:19;;;;;;;7.82;1.23;;;14.80;72.30;;;;;;5008996;28;20060;-77
2022/10/06 10:16:47;;;;;;;7.97;0.82;;;14.90;71.50;;;;;;5061361;28;20158;-80
2022/10/06 10:19:35;;;;;;;7.10;0.70;;;14.90;70.90;;;;;;5055874;28;20083;-79
2022/10/06 10:22:03;;;;;;;8.88;0.77;;;14.90;71.30;;;;;;5044492;28;20417;-80
2022/10/06 10:24:47;;;;;;;8.20;0.80;;;14.90;71.60;;;;;;5057970;28;20080;-80
2022/10/06 10:27:21;;;;;;;5.63;1.15;;;15.00;69.10;;;;;;5032280;28;20049;-79
2022/10/06 10:30:00;;;;;;;8.43;0.93;;;15.00;67.70;;;;;;5050462;28;20099;-79
2022/10/06 10:32:42;;;;;;;5.20;0.90;;;15.00;67.90;;;;;;5059617;28;20060;-77
2022/10/06 10:35:20;;;;;;;8.18;0.60;;;15.00;67.90;;;;;;5042765;28;20266;-81
2022/10/06 10:37:51;;;;;;;8.18;0.90;;;15.10;67.50;;;;;;5054466;28;20056;-77
2022/10/06 10:40:28;;;;;;;7.32;0.95;;;15.20;65.90;;;;;;5052795;28;20049;-81
2022/10/06 10:43:05;;;;;;;9.95;1.30;;;15.20;66.40;;;;;;5025181;28;20044;-78
2022/10/06 10:45:33;;;;;;;9.83;1.00;;;15.20;66.80;;;;;;5052155;28;20056;-80
2022/10/06 10:48:04;;;;;;;8.15;0.98;;;15.20;66.80;;;;;;5050497;28;20650;-80
2022/10/06 10:50:47;;;;;;;7.85;1.10;;;15.20;66.90;;;;;;5035020;28;20136;-78
2022/10/06 10:53:20;;;;;;;7.55;1.20;;;15.20;65.30;;;;;;5049140;28;20111;-79
2022/10/06 10:55:50;;;;;;;6.63;0.93;;;15.20;65.60;;;;;;5051775;28;20124;-82
2022/10/06 10:58:22;;;;;;;4.80;0.70;;;15.20;64.90;;;;;;5053716;28;20055;-81
2022/10/06 11:00:53;;;;;;;8.82;1.05;;;15.30;65.00;;;;;;5041304;28;20249;-77
2022/10/06 11:03:21;;;;;;;5.93;0.88;;;15.30;64.40;;;;;;5060735;28;20054;-77
2022/10/06 11:06:13;;;;;;;6.55;0.88;;;15.30;64.70;;;;;;5035928;28;20804;-76
2022/10/06 11:08:48;;;;;;;6.10;0.70;;;15.40;64.90;;;;;;5053223;28;20432;-76
2022/10/06 11:11:23;;;;;;;7.90;1.00;;;15.40;65.40;;;;;;5051851;28;20459;-77
2022/10/06 11:13:53;;;;;;;9.13;0.95;;;15.50;64.40;;;;;;5052183;28;20259;-77
2022/10/06 11:16:35;;;;;;;8.20;1.00;;;15.60;64.50;;;;;;5054912;28;20612;-77
2022/10/06 11:19:17;;;;;;;7.13;0.80;;;15.60;64.70;;;;;;5051120;28;20053;-76
2022/10/06 11:21:56;;;;;;;7.22;0.90;;;15.60;65.50;;;;;;5051875;28;20120;-77
2022/10/06 11:24:30;;;;;;;6.50;1.00;;;15.70;65.40;;;;;;5052120;28;20060;-77
2022/10/06 11:27:18;;;;;;;7.50;0.63;;;15.80;66.40;;;;;;5051386;28;20348;-77
2022/10/06 11:29:57;;;;;;;4.82;0.70;;;15.80;64.70;;;;;;5051382;28;20053;-76
2022/10/06 11:32:31;;;;;;;4.35;0.60;;;16.00;63.30;;;;;;5053279;28;20053;-75
2022/10/06 11:34:59;;;;;;;6.55;0.82;;;16.00;61.40;;;;;;5037523;28;20566;-76
2022/10/06 11:37:35;;;;;;;4.90;0.60;;;16.00;60.90;;;;;;5068165;28;20049;-76
2022/10/06 11:40:25;;;;;;;5.22;0.70;;;16.10;61.20;;;;;;5113590;22;20235;-76
2022/10/06 11:42:57;;;;;;;6.72;0.50;;;16.10;61.30;;;;;;5041302;28;20050;-78
2022/10/06 11:45:31;;;;;;;4.82;0.75;;;16.20;61.50;;;;;;5032610;28;20050;-78
2022/10/06 11:48:18;;;;;;;7.78;0.63;;;16.20;61.10;;;;;;5028090;28;20128;-78
2022/10/06 11:50:47;;;;;;;5.07;0.60;;;16.30;60.30;;;;;;5026975;28;20049;-79
2022/10/06 11:53:36;;;;;;;6.80;0.73;;;16.40;58.70;;;;;;5029460;28;20265;-78
2022/10/06 11:56:45;;;;;;;5.10;0.57;;;16.40;58.10;;;;;;5031601;28;20467;-78
2022/10/06 11:59:27;;;;;;;5.60;0.70;;;16.40;59.00;;;;;;5013804;28;20141;-78
2022/10/06 12:02:01;;;;;;;4.05;0.40;;;16.40;60.30;;;;;;5048880;28;20123;-78
2022/10/06 12:04:29;;;;;;;5.40;0.77;;;16.40;60.10;;;;;;5047070;28;20503;-78
2022/10/06 12:07:04;;;;;;;4.35;0.60;;;16.40;59.00;;;;;;5033559;28;20773;-78
2022/10/06 12:09:48;;;;;;;4.07;0.55;;;16.50;58.50;;;;;;5046645;28;20061;-78
2022/10/06 12:12:42;;;;;;;4.35;0.52;;;16.50;59.00;;;;;;5032959;28;20046;-78
2022/10/06 12:15:20;;;;;;;5.63;0.82;;;16.50;59.30;;;;;;5052596;28;20072;-78
2022/10/06 12:17:55;;;;;;;5.57;0.87;;;16.60;58.10;;;;;;5031955;28;20108;-78
2022/10/06 12:20:33;;;;;;;7.50;0.80;;;16.60;58.60;;;;;;5048428;28;20268;-78
2022/10/06 12:23:06;;;;;;;3.63;0.60;;;16.60;58.70;;;;;;5014949;28;20050;-77
2022/10/06 12:25:46;;;;;;;5.88;0.77;;;16.70;59.00;;;;;;5016755;28;20153;-77
2022/10/06 12:28:24;;;;;;;7.25;0.70;;;16.70;59.70;;;;;;5030638;28;20148;-77
2022/10/06 12:31:14;;;;;;;6.83;0.70;;;16.70;58.60;;;;;;5031245;28;20530;-77
2022/10/06 12:33:42;;;;;;;6.15;0.77;;;16.80;59.10;;;;;;5030774;28;20346;-76
2022/10/06 12:36:17;;;;;;;5.15;0.80;;;16.80;59.00;;;;;;5013645;28;20049;-77
2022/10/06 12:39:03;;;;;;;6.93;0.65;;;16.80;58.20;;;;;;5016392;28;20057;-77
2022/10/06 12:42:01;;;;;;;3.83;0.43;;;16.90;57.60;;;;;;5032253;28;20049;-77
2022/10/06 12:44:31;;;;;;;5.53;0.60;;;16.90;58.00;;;;;;5027627;28;20136;-77
2022/10/06 12:47:02;;;;;;;5.97;0.70;;;17.00;55.80;;;;;;5041121;28;20724;-77
2022/10/06 12:49:47;;;;;;;5.82;0.70;;;17.00;55.70;;;;;;5032011;28;20057;-76
2022/10/06 12:52:43;;;;;;;5.00;0.45;;;17.00;55.20;;;;;;5048534;28;20057;-78
2022/10/06 12:55:27;;;;;;;4.28;0.60;;;17.00;55.90;;;;;;5043404;28;20058;-78
2022/10/06 12:57:55;;;;;;;4.30;0.70;;;17.00;54.90;;;;;;5047656;28;20441;-78
2022/10/06 13:00:24;;;;;;;6.63;0.70;;;17.00;55.00;;;;;;5027653;28;20733;-78
2022/10/06 13:02:56;;;;;;;6.63;0.80;;;17.00;55.80;;;;;;5029172;28;20056;-78
2022/10/06 13:05:24;;;;;;;6.32;0.60;;;17.00;55.60;;;;;;5049269;28;20052;-78
2022/10/06 13:07:59;;;;;;;5.35;0.52;;;17.00;55.90;;;;;;5032159;28;20057;-78
2022/10/06 13:10:28;;;;;;;5.10;0.60;;;17.10;55.70;;;;;;5030709;28;20543;-78
2022/10/06 13:12:57;;;;;;;6.20;0.80;;;17.10;56.10;;;;;;5028709;28;20838;-77
2022/10/06 13:15:28;;;;;;;5.63;1.00;;;17.20;55.80;;;;;;5012270;28;20078;-77
2022/10/06 13:17:58;;;;;;;6.82;0.77;;;17.20;55.40;;;;;;5037718;28;20061;-77
2022/10/06 13:20:34;;;;;;;5.32;0.80;;;17.20;56.20;;;;;;5031828;28;20052;-77
2022/10/06 13:23:04;;;;;;;6.83;1.00;;;17.20;56.90;;;;;;5029230;28;20111;-78
2022/10/06 13:25:40;;;;;;;5.43;0.80;;;17.30;57.30;;;;;;5013945;28;20744;-78
2022/10/06 13:28:28;;;;;;;6.43;1.30;;;17.30;57.40;;;;;;5025663;28;20064;-78
2022/10/06 13:30:57;;;;;;;6.32;0.70;;;17.30;57.40;;;;;;5026760;28;20173;-76
2022/10/06 13:33:28;;;;;;;5.57;0.77;;;17.40;57.40;;;;;;5013681;28;20553;-76